314 UKFF-UKFF
Flight info
| Callsign | 314 |
|---|---|
| Flight time | 0h 8m |
| Altitude | 15000 |
| Route | DCT |
| Aircraft | L29/M-SDFGRWY/S |
Departure
| Time | 2026-04-19 21:24 |
|---|---|
| Airport | Simferopol International Airport (UKFF) |
Arrival
| Time | 2026-04-19 21:33 |
|---|---|
| Airport | Simferopol International Airport (UKFF) |
| Time | Latitude | Longitude | Altitude | Speed | Heading |
|---|---|---|---|---|---|
| 2026-04-19 20:54 | 45.06773 | 33.97848 | 578 ft | 0 kts | 197° |
| 2026-04-19 20:55 | 45.06453 | 33.97744 | 579 ft | 0 kts | 194° |
| 2026-04-19 20:55 | 45.05777 | 33.97635 | 657 ft | 0 kts | 178° |
| 2026-04-19 20:55 | 45.04901 | 33.97613 | 758 ft | 0 kts | 186° |
| 2026-04-19 20:55 | 45.03679 | 33.97727 | 1030 ft | 0 kts | 178° |
| 2026-04-19 20:56 | 45.02235 | 33.97543 | 1215 ft | 0 kts | 199° |
| 2026-04-19 20:56 | 45.00720 | 33.96585 | 1380 ft | 0 kts | 226° |
| 2026-04-19 20:56 | 45.01430 | 33.96108 | 2006 ft | 0 kts | 24° |
| 2026-04-19 20:56 | 45.02729 | 33.97002 | 1504 ft | 0 kts | 29° |
| 2026-04-19 20:57 | 45.04374 | 33.97384 | 1513 ft | 0 kts | 329° |
| 2026-04-19 20:57 | 45.04008 | 33.96759 | 1213 ft | 0 kts | 73° |
| 2026-04-19 20:57 | 45.05340 | 33.97395 | 689 ft | 0 kts | 9° |
| 2026-04-19 20:57 | 45.06635 | 33.98139 | 714 ft | 0 kts | 19° |
| 2026-04-19 20:58 | 45.07718 | 33.98728 | 919 ft | 0 kts | 13° |
| 2026-04-19 20:58 | 45.08218 | 33.99458 | 1598 ft | 0 kts | 26° |
| 2026-04-19 20:58 | 45.08635 | 33.98726 | 1348 ft | 0 kts | 210° |
| 2026-04-19 20:58 | 45.07228 | 33.98063 | 671 ft | 0 kts | 199° |
| 2026-04-19 20:59 | 45.05274 | 33.97349 | 623 ft | 0 kts | 194° |
| 2026-04-19 20:59 | 45.03997 | 33.96233 | 2082 ft | 0 kts | 330° |
| 2026-04-19 20:59 | 45.05960 | 33.96162 | 1710 ft | 0 kts | 27° |
| 2026-04-19 20:59 | 45.06055 | 33.96238 | 1742 ft | 0 kts | 28° |
| 2026-04-19 21:00 | 45.06215 | 33.97510 | 1276 ft | 0 kts | 161° |
| 2026-04-19 21:00 | 45.04383 | 33.97510 | 1593 ft | 0 kts | 192° |
| 2026-04-19 21:00 | 45.03621 | 33.97230 | 2596 ft | 0 kts | 352° |
| 2026-04-19 21:00 | 45.05724 | 33.97502 | 617 ft | 0 kts | 12° |
| 2026-04-19 21:01 | 45.07507 | 33.98096 | 667 ft | 0 kts | 12° |
| 2026-04-19 21:01 | 45.08915 | 33.99176 | 784 ft | 0 kts | 48° |
| 2026-04-19 21:01 | 45.08205 | 34.00319 | 1311 ft | 0 kts | 192° |
| 2026-04-19 21:02 | 45.07063 | 33.99884 | 1355 ft | 0 kts | 212° |
| 2026-04-19 21:02 | 45.06097 | 33.99111 | 1118 ft | 0 kts | 219° |
| 2026-04-19 21:02 | 45.05290 | 33.97933 | 659 ft | 0 kts | 221° |
| 2026-04-19 21:02 | 45.04302 | 33.97111 | 629 ft | 0 kts | 220° |
| 2026-04-19 21:03 | 45.03413 | 33.96225 | 694 ft | 0 kts | 202° |
| 2026-04-19 21:03 | 45.02772 | 33.96740 | 1081 ft | 0 kts | 65° |
| 2026-04-19 21:03 | 45.03516 | 33.96877 | 660 ft | 0 kts | 356° |
| 2026-04-19 21:03 | 45.04389 | 33.97081 | 594 ft | 0 kts | 11° |
| 2026-04-19 21:04 | 45.05143 | 33.97339 | 585 ft | 0 kts | 6° |
| 2026-04-19 21:04 | 45.05792 | 33.97516 | 582 ft | 0 kts | 13° |
| 2026-04-19 21:04 | 45.06281 | 33.97670 | 580 ft | 0 kts | 12° |
| 2026-04-19 21:04 | 45.06500 | 33.97769 | 579 ft | 0 kts | 17° |
| 2026-04-19 21:05 | 45.06696 | 33.97837 | 578 ft | 0 kts | 10° |
| 2026-04-19 21:05 | 45.06780 | 33.97947 | 578 ft | 0 kts | 87° |
| 2026-04-19 21:05 | 45.06746 | 33.98058 | 578 ft | 0 kts | 156° |
| 2026-04-19 21:05 | 45.06655 | 33.98054 | 579 ft | 0 kts | 192° |
| 2026-04-19 21:06 | 45.06627 | 33.98045 | 579 ft | 0 kts | 195° |
| 2026-04-19 21:06 | 45.06538 | 33.98011 | 579 ft | 0 kts | 189° |
| 2026-04-19 21:06 | 45.06508 | 33.98027 | 580 ft | 0 kts | 116° |
| 2026-04-19 21:06 | 45.06506 | 33.98032 | 580 ft | 0 kts | 221° |
| 2026-04-19 21:08 | 45.06504 | 33.98029 | 580 ft | 3 kts | 224° |
| 2026-04-19 21:08 | 45.06432 | 33.98004 | 580 ft | 21 kts | 192° |
| 2026-04-19 21:09 | 45.06219 | 33.97945 | 581 ft | 41 kts | 191° |
| 2026-04-19 21:09 | 45.05880 | 33.97854 | 582 ft | 60 kts | 192° |
| 2026-04-19 21:09 | 45.05402 | 33.97723 | 584 ft | 75 kts | 188° |
| 2026-04-19 21:09 | 45.04847 | 33.97549 | 587 ft | 88 kts | 192° |
| 2026-04-19 21:10 | 45.04204 | 33.97338 | 595 ft | 101 kts | 193° |
| 2026-04-19 21:10 | 45.03653 | 33.97166 | 598 ft | 51 kts | 197° |
| 2026-04-19 21:10 | 45.03509 | 33.97105 | 598 ft | 8 kts | 186° |
| 2026-04-19 21:10 | 45.03473 | 33.97097 | 597 ft | 1 kts | 194° |
| 2026-04-19 21:11 | 45.03472 | 33.97097 | 597 ft | 0 kts | 195° |
| 2026-04-19 21:11 | 45.03471 | 33.97097 | 597 ft | 0 kts | 194° |
| 2026-04-19 21:11 | 45.03469 | 33.97096 | 597 ft | 0 kts | 189° |
| 2026-04-19 21:11 | 45.03449 | 33.97096 | 597 ft | 3 kts | 179° |
| 2026-04-19 21:12 | 45.03435 | 33.97095 | 597 ft | 0 kts | 188° |
| 2026-04-19 21:12 | 45.03434 | 33.97095 | 597 ft | 1 kts | 190° |
| 2026-04-19 21:12 | 45.03431 | 33.97094 | 597 ft | 0 kts | 194° |
| 2026-04-19 21:12 | 45.03429 | 33.97093 | 597 ft | 0 kts | 197° |
| 2026-04-19 21:13 | 45.03428 | 33.97092 | 597 ft | 0 kts | 194° |
| 2026-04-19 21:13 | 45.03426 | 33.97092 | 597 ft | 1 kts | 179° |
| 2026-04-19 21:13 | 45.03419 | 33.97093 | 597 ft | 0 kts | 170° |
| 2026-04-19 21:13 | 45.03418 | 33.97093 | 597 ft | 0 kts | 182° |
| 2026-04-19 21:15 | 45.03413 | 33.97015 | 595 ft | 23 kts | 281° |
| 2026-04-19 21:15 | 45.03435 | 33.96948 | 595 ft | 0 kts | 336° |
| 2026-04-19 21:16 | 45.03437 | 33.96947 | 595 ft | 2 kts | 336° |
| 2026-04-19 21:16 | 45.03500 | 33.96920 | 595 ft | 17 kts | 338° |
| 2026-04-19 21:16 | 45.03640 | 33.96867 | 595 ft | 22 kts | 346° |
| 2026-04-19 21:16 | 45.03731 | 33.96831 | 595 ft | 11 kts | 13° |
| 2026-04-19 21:17 | 45.03754 | 33.96842 | 595 ft | 0 kts | 32° |
| 2026-04-19 21:17 | 45.03782 | 33.96856 | 595 ft | 2 kts | 17° |
| 2026-04-19 21:17 | 45.03786 | 33.96858 | 595 ft | 0 kts | 8° |
| 2026-04-19 21:23 | 45.03803 | 33.96861 | 595 ft | 12 kts | 13° |
| 2026-04-19 21:23 | 45.04092 | 33.96960 | 594 ft | 73 kts | 13° |
| 2026-04-19 21:24 | 45.04741 | 33.97206 | 659 ft | 112 kts | 12° |
| 2026-04-19 21:24 | 45.05592 | 33.97577 | 864 ft | 141 kts | 13° |
| 2026-04-19 21:24 | 45.06574 | 33.98028 | 1269 ft | 158 kts | 17° |
| 2026-04-19 21:24 | 45.07670 | 33.98609 | 1651 ft | 183 kts | 20° |
| 2026-04-19 21:25 | 45.08888 | 33.99332 | 2289 ft | 203 kts | 21° |
| 2026-04-19 21:25 | 45.10265 | 34.00147 | 2875 ft | 228 kts | 21° |
| 2026-04-19 21:25 | 45.11789 | 34.01083 | 3210 ft | 229 kts | 27° |
| 2026-04-19 21:25 | 45.12811 | 34.02312 | 3520 ft | 168 kts | 17° |
| 2026-04-19 21:26 | 45.13546 | 34.03233 | 3426 ft | 148 kts | 68° |
| 2026-04-19 21:26 | 45.14180 | 34.04287 | 2946 ft | 182 kts | 49° |
| 2026-04-19 21:26 | 45.15127 | 34.05428 | 3327 ft | 172 kts | 29° |
| 2026-04-19 21:26 | 45.16189 | 34.06345 | 3384 ft | 193 kts | 31° |
| 2026-04-19 21:27 | 45.17365 | 34.07410 | 3612 ft | 197 kts | 34° |
| 2026-04-19 21:27 | 45.18263 | 34.08483 | 3739 ft | 170 kts | 40° |
| 2026-04-19 21:27 | 45.19249 | 34.09372 | 3395 ft | 159 kts | 14° |
| 2026-04-19 21:27 | 45.19713 | 34.10586 | 2876 ft | 179 kts | 83° |
| 2026-04-19 21:28 | 45.20665 | 34.11743 | 2175 ft | 183 kts | 10° |
| 2026-04-19 21:28 | 45.21775 | 34.12209 | 2187 ft | 141 kts | 319° |
| 2026-04-19 21:28 | 45.22047 | 34.11268 | 2362 ft | 113 kts | 269° |
| 2026-04-19 21:28 | 45.22198 | 34.09953 | 2213 ft | 160 kts | 287° |
| 2026-04-19 21:29 | 45.22512 | 34.08312 | 2760 ft | 182 kts | 282° |
| 2026-04-19 21:29 | 45.22714 | 34.06424 | 3139 ft | 212 kts | 262° |
| 2026-04-19 21:29 | 45.21799 | 34.04871 | 3092 ft | 202 kts | 214° |
| 2026-04-19 21:29 | 45.20499 | 34.04199 | 3488 ft | 208 kts | 196° |
| 2026-04-19 21:30 | 45.19043 | 34.03490 | 3891 ft | 240 kts | 204° |
| 2026-04-19 21:30 | 45.17393 | 34.02462 | 4162 ft | 280 kts | 205° |
| 2026-04-19 21:30 | 45.15495 | 34.01263 | 3899 ft | 310 kts | 205° |
| 2026-04-19 21:30 | 45.13737 | 34.00396 | 3378 ft | 227 kts | 176° |
| 2026-04-19 21:31 | 45.12485 | 33.99925 | 2657 ft | 200 kts | 190° |
| 2026-04-19 21:31 | 45.11354 | 33.99606 | 2244 ft | 164 kts | 160° |
| 2026-04-19 21:31 | 45.10388 | 33.99082 | 1384 ft | 153 kts | 194° |
| 2026-04-19 21:31 | 45.09388 | 33.98796 | 1127 ft | 150 kts | 195° |
| 2026-04-19 21:32 | 45.08458 | 33.98637 | 1207 ft | 98 kts | 201° |
| 2026-04-19 21:32 | 45.07829 | 33.98248 | 752 ft | 101 kts | 197° |
| 2026-04-19 21:32 | 45.07191 | 33.98034 | 613 ft | 89 kts | 199° |
| 2026-04-19 21:32 | 45.06616 | 33.97831 | 579 ft | 83 kts | 195° |
| 2026-04-19 21:33 | 45.06089 | 33.97655 | 581 ft | 80 kts | 195° |
| 2026-04-19 21:33 | 45.05606 | 33.97493 | 583 ft | 48 kts | 193° |
| 2026-04-19 21:33 | 45.05336 | 33.97406 | 584 ft | 35 kts | 193° |
| 2026-04-19 21:33 | 45.05129 | 33.97339 | 585 ft | 24 kts | 188° |
| 2026-04-19 21:34 | 45.04884 | 33.97269 | 586 ft | 40 kts | 195° |
| 2026-04-19 21:34 | 45.04694 | 33.97198 | 588 ft | 15 kts | 191° |
| 2026-04-19 21:34 | 45.04570 | 33.97159 | 589 ft | 23 kts | 194° |
| 2026-04-19 21:34 | 45.04391 | 33.97091 | 591 ft | 34 kts | 193° |
| 2026-04-19 21:35 | 45.04145 | 33.97012 | 594 ft | 26 kts | 193° |
| 2026-04-19 21:35 | 45.04052 | 33.96982 | 594 ft | 1 kts | 195° |
| 2026-04-19 21:35 | 45.04035 | 33.96976 | 595 ft | 13 kts | 194° |
| 2026-04-19 21:35 | 45.03839 | 33.96927 | 595 ft | 26 kts | 184° |
| 2026-04-19 21:36 | 45.03739 | 33.96946 | 596 ft | 3 kts | 171° |
| 2026-04-19 21:36 | 45.03677 | 33.96965 | 596 ft | 25 kts | 167° |
| 2026-04-19 21:36 | 45.03566 | 33.97059 | 597 ft | 11 kts | 115° |
| 2026-04-19 21:36 | 45.03532 | 33.97229 | 599 ft | 16 kts | 107° |
| 2026-04-19 21:37 | 45.03516 | 33.97289 | 600 ft | 7 kts | 117° |
| 2026-04-19 21:37 | 45.03457 | 33.97396 | 602 ft | 2 kts | 146° |
| 2026-04-19 21:37 | 45.03450 | 33.97407 | 602 ft | 7 kts | 112° |
| 2026-04-19 21:37 | 45.03429 | 33.97432 | 603 ft | 0 kts | 197° |